sensor_id;sensor_type;location;lat;lon;timestamp;pressure;altitude;pressure_sealevel;temperature;humidity
43814;BME280;29669;55.706;37.656;2022-09-09T00:04:40;100699.53;;;8.67;nan
43814;BME280;29669;55.706;37.656;2022-09-09T00:08:02;100703.06;;;8.66;nan
43814;BME280;29669;55.706;37.656;2022-09-09T00:11:31;100701.41;;;8.65;nan
43814;BME280;29669;55.706;37.656;2022-09-09T00:15:00;100709.19;;;8.65;nan
43814;BME280;29669;55.706;37.656;2022-09-09T00:22:40;100702.25;;;8.66;nan
43814;BME280;29669;55.706;37.656;2022-09-09T00:32:33;100714.91;;;8.59;nan
43814;BME280;29669;55.706;37.656;2022-09-09T00:35:56;100713.94;;;8.60;nan
43814;BME280;29669;55.706;37.656;2022-09-09T00:39:27;100723.31;;;8.61;nan
43814;BME280;29669;55.706;37.656;2022-09-09T00:43:03;100722.38;;;8.62;nan
43814;BME280;29669;55.706;37.656;2022-09-09T00:46:50;100726.75;;;8.62;nan
43814;BME280;29669;55.706;37.656;2022-09-09T00:50:30;100723.09;;;8.64;nan
43814;BME280;29669;55.706;37.656;2022-09-09T00:57:34;100723.78;;;8.66;nan
43814;BME280;29669;55.706;37.656;2022-09-09T01:01:13;100722.03;;;8.67;nan
43814;BME280;29669;55.706;37.656;2022-09-09T01:04:36;100728.81;;;8.68;nan
43814;BME280;29669;55.706;37.656;2022-09-09T01:08:01;100737.16;;;8.71;nan
43814;BME280;29669;55.706;37.656;2022-09-09T01:15:23;100735.47;;;8.61;nan
43814;BME280;29669;55.706;37.656;2022-09-09T01:18:49;100739.81;;;8.60;nan
43814;BME280;29669;55.706;37.656;2022-09-09T01:26:11;100752.19;;;8.57;nan
43814;BME280;29669;55.706;37.656;2022-09-09T01:29:39;100754.22;;;8.53;nan
43814;BME280;29669;55.706;37.656;2022-09-09T01:33:02;100755.13;;;8.52;nan
43814;BME280;29669;55.706;37.656;2022-09-09T01:39:51;100764.09;;;8.48;nan
43814;BME280;29669;55.706;37.656;2022-09-09T01:43:12;100765.19;;;8.45;nan
43814;BME280;29669;55.706;37.656;2022-09-09T01:46:34;100760.50;;;8.39;nan
43814;BME280;29669;55.706;37.656;2022-09-09T01:49:55;100761.56;;;8.37;nan
43814;BME280;29669;55.706;37.656;2022-09-09T01:53:17;100771.78;;;8.38;nan
43814;BME280;29669;55.706;37.656;2022-09-09T01:57:13;100762.38;;;8.37;nan
43814;BME280;29669;55.706;37.656;2022-09-09T02:00:41;100773.94;;;8.33;nan
43814;BME280;29669;55.706;37.656;2022-09-09T02:08:03;100782.66;;;8.32;nan
43814;BME280;29669;55.706;37.656;2022-09-09T02:11:27;100774.06;;;8.32;nan
43814;BME280;29669;55.706;37.656;2022-09-09T02:15:06;100782.75;;;8.31;nan
43814;BME280;29669;55.706;37.656;2022-09-09T02:18:32;100782.88;;;8.29;nan
43814;BME280;29669;55.706;37.656;2022-09-09T02:22:04;100791.59;;;8.28;nan
43814;BME280;29669;55.706;37.656;2022-09-09T02:25:28;100790.38;;;8.21;nan
43814;BME280;29669;55.706;37.656;2022-09-09T02:28:55;100786.66;;;8.14;nan
43814;BME280;29669;55.706;37.656;2022-09-09T02:32:17;100793.16;;;8.09;nan
43814;BME280;29669;55.706;37.656;2022-09-09T02:35:44;100794.81;;;8.10;nan
43814;BME280;29669;55.706;37.656;2022-09-09T02:39:07;100797.38;;;8.10;nan
43814;BME280;29669;55.706;37.656;2022-09-09T02:42:29;100801.84;;;8.08;nan
43814;BME280;29669;55.706;37.656;2022-09-09T02:46:04;100807.63;;;8.00;nan
43814;BME280;29669;55.706;37.656;2022-09-09T02:56:21;100823.28;;;7.77;nan
43814;BME280;29669;55.706;37.656;2022-09-09T02:59:46;100825.63;;;7.69;nan
43814;BME280;29669;55.706;37.656;2022-09-09T03:03:07;100824.00;;;7.56;nan
43814;BME280;29669;55.706;37.656;2022-09-09T03:06:31;100833.06;;;7.40;nan
43814;BME280;29669;55.706;37.656;2022-09-09T03:09:54;100831.28;;;7.29;nan
43814;BME280;29669;55.706;37.656;2022-09-09T03:13:15;100834.78;;;7.17;nan
43814;BME280;29669;55.706;37.656;2022-09-09T03:16:36;100841.56;;;7.07;nan
43814;BME280;29669;55.706;37.656;2022-09-09T03:19:58;100827.25;;;7.03;nan
43814;BME280;29669;55.706;37.656;2022-09-09T03:23:19;100834.75;;;7.06;nan
43814;BME280;29669;55.706;37.656;2022-09-09T03:26:41;100837.00;;;7.11;nan
43814;BME280;29669;55.706;37.656;2022-09-09T03:30:03;100832.09;;;7.08;nan
43814;BME280;29669;55.706;37.656;2022-09-09T03:33:24;100845.91;;;7.07;nan
43814;BME280;29669;55.706;37.656;2022-09-09T03:36:47;100848.81;;;7.02;nan
43814;BME280;29669;55.706;37.656;2022-09-09T03:40:09;100854.81;;;7.03;nan
43814;BME280;29669;55.706;37.656;2022-09-09T03:43:31;100854.59;;;7.06;nan
43814;BME280;29669;55.706;37.656;2022-09-09T03:46:53;100868.22;;;7.08;nan
43814;BME280;29669;55.706;37.656;2022-09-09T03:50:14;100866.31;;;7.10;nan
43814;BME280;29669;55.706;37.656;2022-09-09T03:53:35;100867.88;;;7.12;nan
43814;BME280;29669;55.706;37.656;2022-09-09T03:56:58;100868.34;;;7.17;nan
43814;BME280;29669;55.706;37.656;2022-09-09T04:00:19;100864.72;;;7.20;nan
43814;BME280;29669;55.706;37.656;2022-09-09T04:03:40;100864.38;;;7.24;nan
43814;BME280;29669;55.706;37.656;2022-09-09T04:07:01;100865.88;;;7.27;nan
43814;BME280;29669;55.706;37.656;2022-09-09T04:10:22;100865.69;;;7.30;nan
43814;BME280;29669;55.706;37.656;2022-09-09T04:13:43;100879.75;;;7.37;nan
43814;BME280;29669;55.706;37.656;2022-09-09T04:17:04;100871.69;;;7.41;nan
43814;BME280;29669;55.706;37.656;2022-09-09T04:20:25;100874.84;;;7.45;nan
43814;BME280;29669;55.706;37.656;2022-09-09T04:23:46;100883.56;;;7.55;nan
43814;BME280;29669;55.706;37.656;2022-09-09T04:27:07;100882.28;;;7.60;nan
43814;BME280;29669;55.706;37.656;2022-09-09T04:30:29;100877.56;;;7.66;nan
43814;BME280;29669;55.706;37.656;2022-09-09T04:33:50;100883.78;;;7.74;nan
43814;BME280;29669;55.706;37.656;2022-09-09T04:37:11;100884.13;;;7.81;nan
43814;BME280;29669;55.706;37.656;2022-09-09T04:40:33;100885.31;;;7.88;nan
43814;BME280;29669;55.706;37.656;2022-09-09T04:43:57;100883.06;;;7.94;nan
43814;BME280;29669;55.706;37.656;2022-09-09T04:47:11;100884.38;;;8.00;nan
43814;BME280;29669;55.706;37.656;2022-09-09T04:50:32;100882.22;;;8.05;nan
43814;BME280;29669;55.706;37.656;2022-09-09T04:53:54;100892.09;;;8.11;nan
43814;BME280;29669;55.706;37.656;2022-09-09T04:57:17;100890.66;;;8.18;nan
43814;BME280;29669;55.706;37.656;2022-09-09T05:00:38;100885.97;;;8.23;nan
43814;BME280;29669;55.706;37.656;2022-09-09T05:03:59;100896.69;;;8.29;nan
43814;BME280;29669;55.706;37.656;2022-09-09T05:07:20;100892.78;;;8.35;nan
43814;BME280;29669;55.706;37.656;2022-09-09T05:10:41;100904.31;;;8.42;nan
43814;BME280;29669;55.706;37.656;2022-09-09T05:14:02;100900.03;;;8.52;nan
43814;BME280;29669;55.706;37.656;2022-09-09T05:17:26;100907.66;;;8.65;nan
43814;BME280;29669;55.706;37.656;2022-09-09T05:20:49;100907.97;;;8.71;nan
43814;BME280;29669;55.706;37.656;2022-09-09T05:24:10;100912.19;;;8.83;nan
43814;BME280;29669;55.706;37.656;2022-09-09T05:27:33;100905.41;;;8.92;nan
43814;BME280;29669;55.706;37.656;2022-09-09T05:31:02;100918.44;;;9.01;nan
43814;BME280;29669;55.706;37.656;2022-09-09T05:34:26;100914.28;;;9.10;nan
43814;BME280;29669;55.706;37.656;2022-09-09T05:37:47;100911.88;;;9.18;nan
43814;BME280;29669;55.706;37.656;2022-09-09T05:41:10;100908.66;;;9.25;nan
43814;BME280;29669;55.706;37.656;2022-09-09T05:44:34;100910.75;;;9.31;nan
43814;BME280;29669;55.706;37.656;2022-09-09T05:47:56;100913.97;;;9.44;nan
43814;BME280;29669;55.706;37.656;2022-09-09T05:51:37;100913.50;;;9.60;nan
43814;BME280;29669;55.706;37.656;2022-09-09T05:54:58;100918.75;;;9.70;nan
43814;BME280;29669;55.706;37.656;2022-09-09T05:58:19;100924.47;;;9.73;nan
43814;BME280;29669;55.706;37.656;2022-09-09T06:01:43;100926.44;;;9.81;nan
43814;BME280;29669;55.706;37.656;2022-09-09T06:05:08;100925.91;;;9.87;nan
43814;BME280;29669;55.706;37.656;2022-09-09T06:08:30;100925.66;;;9.90;nan
43814;BME280;29669;55.706;37.656;2022-09-09T06:11:53;100928.94;;;9.92;nan
43814;BME280;29669;55.706;37.656;2022-09-09T06:15:14;100931.69;;;10.00;nan
43814;BME280;29669;55.706;37.656;2022-09-09T06:18:36;100938.00;;;10.07;nan
43814;BME280;29669;55.706;37.656;2022-09-09T06:21:58;100939.72;;;10.17;nan
43814;BME280;29669;55.706;37.656;2022-09-09T06:25:19;100931.84;;;10.28;nan
43814;BME280;29669;55.706;37.656;2022-09-09T06:28:41;100935.00;;;10.41;nan
43814;BME280;29669;55.706;37.656;2022-09-09T06:32:03;100940.34;;;10.50;nan
43814;BME280;29669;55.706;37.656;2022-09-09T06:35:24;100944.34;;;10.63;nan
43814;BME280;29669;55.706;37.656;2022-09-09T06:38:45;100941.88;;;10.90;nan
43814;BME280;29669;55.706;37.656;2022-09-09T06:42:07;100947.91;;;11.10;nan
43814;BME280;29669;55.706;37.656;2022-09-09T06:45:38;100952.16;;;11.11;nan
43814;BME280;29669;55.706;37.656;2022-09-09T06:48:59;100950.91;;;10.96;nan
43814;BME280;29669;55.706;37.656;2022-09-09T06:52:14;100951.88;;;10.85;nan
43814;BME280;29669;55.706;37.656;2022-09-09T06:55:36;100960.22;;;10.98;nan
43814;BME280;29669;55.706;37.656;2022-09-09T06:59:00;100950.22;;;11.32;nan
43814;BME280;29669;55.706;37.656;2022-09-09T07:02:24;100963.88;;;11.53;nan
43814;BME280;29669;55.706;37.656;2022-09-09T07:05:54;100953.09;;;11.94;nan
43814;BME280;29669;55.706;37.656;2022-09-09T07:09:15;100956.53;;;12.49;nan
43814;BME280;29669;55.706;37.656;2022-09-09T07:12:37;100964.16;;;12.78;nan
43814;BME280;29669;55.706;37.656;2022-09-09T07:16:12;100975.72;;;12.75;nan
43814;BME280;29669;55.706;37.656;2022-09-09T07:19:35;100967.75;;;12.77;nan
43814;BME280;29669;55.706;37.656;2022-09-09T07:22:57;100981.72;;;13.20;nan
43814;BME280;29669;55.706;37.656;2022-09-09T07:26:20;100974.50;;;13.58;nan
43814;BME280;29669;55.706;37.656;2022-09-09T07:29:42;100980.16;;;13.53;nan
43814;BME280;29669;55.706;37.656;2022-09-09T07:33:04;100989.91;;;13.26;nan
43814;BME280;29669;55.706;37.656;2022-09-09T07:36:27;100990.47;;;12.84;nan
43814;BME280;29669;55.706;37.656;2022-09-09T07:39:49;100991.63;;;12.55;nan
43814;BME280;29669;55.706;37.656;2022-09-09T07:43:10;100997.16;;;12.42;nan
43814;BME280;29669;55.706;37.656;2022-09-09T07:46:33;100995.66;;;12.67;nan
43814;BME280;29669;55.706;37.656;2022-09-09T07:50:01;100999.09;;;13.02;nan
43814;BME280;29669;55.706;37.656;2022-09-09T07:53:23;101000.25;;;13.35;nan
43814;BME280;29669;55.706;37.656;2022-09-09T07:56:44;101002.84;;;13.53;nan
43814;BME280;29669;55.706;37.656;2022-09-09T08:00:08;100998.72;;;13.68;nan
43814;BME280;29669;55.706;37.656;2022-09-09T08:03:31;100998.63;;;13.77;nan
43814;BME280;29669;55.706;37.656;2022-09-09T08:06:55;101000.47;;;13.93;nan
43814;BME280;29669;55.706;37.656;2022-09-09T08:10:22;101010.75;;;14.20;nan
43814;BME280;29669;55.706;37.656;2022-09-09T08:13:43;101010.41;;;14.15;nan
43814;BME280;29669;55.706;37.656;2022-09-09T08:17:08;101004.81;;;14.10;nan
43814;BME280;29669;55.706;37.656;2022-09-09T08:20:30;101007.41;;;14.28;nan
43814;BME280;29669;55.706;37.656;2022-09-09T08:23:52;100999.09;;;14.74;nan
43814;BME280;29669;55.706;37.656;2022-09-09T08:27:16;101004.88;;;15.34;nan
43814;BME280;29669;55.706;37.656;2022-09-09T08:30:37;101013.53;;;15.26;nan
43814;BME280;29669;55.706;37.656;2022-09-09T08:33:59;101012.97;;;14.74;nan
43814;BME280;29669;55.706;37.656;2022-09-09T08:37:21;101013.44;;;14.28;nan
43814;BME280;29669;55.706;37.656;2022-09-09T08:40:46;101018.72;;;14.36;nan
43814;BME280;29669;55.706;37.656;2022-09-09T08:44:22;101011.69;;;14.86;nan
43814;BME280;29669;55.706;37.656;2022-09-09T08:51:19;101018.16;;;15.40;nan
43814;BME280;29669;55.706;37.656;2022-09-09T08:54:40;101010.16;;;15.42;nan
43814;BME280;29669;55.706;37.656;2022-09-09T08:58:11;101016.97;;;15.19;nan
43814;BME280;29669;55.706;37.656;2022-09-09T09:01:54;101020.22;;;15.04;nan
43814;BME280;29669;55.706;37.656;2022-09-09T09:05:31;101017.63;;;15.13;nan
43814;BME280;29669;55.706;37.656;2022-09-09T09:09:02;101025.66;;;15.27;nan
43814;BME280;29669;55.706;37.656;2022-09-09T09:12:29;101024.22;;;15.49;nan
43814;BME280;29669;55.706;37.656;2022-09-09T09:16:00;101032.38;;;15.78;nan
43814;BME280;29669;55.706;37.656;2022-09-09T09:19:24;101030.69;;;16.01;nan
43814;BME280;29669;55.706;37.656;2022-09-09T09:26:09;101027.94;;;15.78;nan
43814;BME280;29669;55.706;37.656;2022-09-09T09:29:30;101024.31;;;15.31;nan
43814;BME280;29669;55.706;37.656;2022-09-09T09:33:23;101025.47;;;15.13;nan
43814;BME280;29669;55.706;37.656;2022-09-09T09:36:53;101024.16;;;15.17;nan
43814;BME280;29669;55.706;37.656;2022-09-09T09:40:19;101018.50;;;15.53;nan
43814;BME280;29669;55.706;37.656;2022-09-09T09:43:41;101017.63;;;15.93;nan
43814;BME280;29669;55.706;37.656;2022-09-09T09:54:28;101020.63;;;16.37;nan
43814;BME280;29669;55.706;37.656;2022-09-09T09:57:49;101022.59;;;16.35;nan
43814;BME280;29669;55.706;37.656;2022-09-09T10:01:23;101022.97;;;16.16;nan
43814;BME280;29669;55.706;37.656;2022-09-09T10:04:45;101017.25;;;16.12;nan
43814;BME280;29669;55.706;37.656;2022-09-09T10:11:45;101021.22;;;15.92;nan
43814;BME280;29669;55.706;37.656;2022-09-09T10:19:01;101028.69;;;16.19;nan
43814;BME280;29669;55.706;37.656;2022-09-09T10:22:28;101025.66;;;16.46;nan
43814;BME280;29669;55.706;37.656;2022-09-09T10:26:02;101023.28;;;16.67;nan
43814;BME280;29669;55.706;37.656;2022-09-09T10:36:51;101035.59;;;16.12;nan
43814;BME280;29669;55.706;37.656;2022-09-09T10:40:39;101030.38;;;15.88;nan
43814;BME280;29669;55.706;37.656;2022-09-09T10:58:12;101020.06;;;14.48;nan
43814;BME280;29669;55.706;37.656;2022-09-09T11:08:55;101018.56;;;16.16;nan
43814;BME280;29669;55.706;37.656;2022-09-09T11:12:19;101030.97;;;16.22;nan
43814;BME280;29669;55.706;37.656;2022-09-09T11:15:44;101024.69;;;15.76;nan
43814;BME280;29669;55.706;37.656;2022-09-09T11:26:39;101025.84;;;15.74;nan
43814;BME280;29669;55.706;37.656;2022-09-09T11:30:16;101026.16;;;15.71;nan
43814;BME280;29669;55.706;37.656;2022-09-09T11:41:36;101032.03;;;16.44;nan
43814;BME280;29669;55.706;37.656;2022-09-09T11:45:26;101027.94;;;16.41;nan
43814;BME280;29669;55.706;37.656;2022-09-09T11:49:03;101035.13;;;16.00;nan
43814;BME280;29669;55.706;37.656;2022-09-09T11:52:37;101028.28;;;15.75;nan
43814;BME280;29669;55.706;37.656;2022-09-09T11:56:12;101034.34;;;15.68;nan
43814;BME280;29669;55.706;37.656;2022-09-09T11:59:35;101033.88;;;15.64;nan
43814;BME280;29669;55.706;37.656;2022-09-09T12:02:57;101030.72;;;15.37;nan
43814;BME280;29669;55.706;37.656;2022-09-09T12:09:58;101028.56;;;15.00;nan
43814;BME280;29669;55.706;37.656;2022-09-09T12:13:23;101018.59;;;15.03;nan
43814;BME280;29669;55.706;37.656;2022-09-09T12:16:45;101022.41;;;15.41;nan
43814;BME280;29669;55.706;37.656;2022-09-09T12:20:14;101017.63;;;15.93;nan
43814;BME280;29669;55.706;37.656;2022-09-09T12:23:52;101015.13;;;16.62;nan
43814;BME280;29669;55.706;37.656;2022-09-09T12:34:39;101022.59;;;16.35;nan
43814;BME280;29669;55.706;37.656;2022-09-09T12:37:59;101023.88;;;15.68;nan
43814;BME280;29669;55.706;37.656;2022-09-09T12:41:26;101023.00;;;15.11;nan
43814;BME280;29669;55.706;37.656;2022-09-09T12:44:57;101017.91;;;14.85;nan
43814;BME280;29669;55.706;37.656;2022-09-09T12:48:27;101025.50;;;16.40;nan
43814;BME280;29669;55.706;37.656;2022-09-09T12:51:50;101014.66;;;18.09;nan
43814;BME280;29669;55.706;37.656;2022-09-09T12:55:20;101014.28;;;19.13;nan
43814;BME280;29669;55.706;37.656;2022-09-09T12:58:45;101004.19;;;19.86;nan
43814;BME280;29669;55.706;37.656;2022-09-09T13:02:25;101012.16;;;20.74;nan
43814;BME280;29669;55.706;37.656;2022-09-09T13:05:46;101012.06;;;21.54;nan
43814;BME280;29669;55.706;37.656;2022-09-09T13:09:08;101001.91;;;21.90;nan
43814;BME280;29669;55.706;37.656;2022-09-09T13:12:29;101010.03;;;21.76;nan
43814;BME280;29669;55.706;37.656;2022-09-09T13:15:53;101005.34;;;20.45;nan
43814;BME280;29669;55.706;37.656;2022-09-09T13:19:16;101008.03;;;19.56;nan
43814;BME280;29669;55.706;37.656;2022-09-09T13:22:41;101005.28;;;19.98;nan
43814;BME280;29669;55.706;37.656;2022-09-09T13:26:06;101007.81;;;21.40;nan
43814;BME280;29669;55.706;37.656;2022-09-09T13:29:28;101004.41;;;22.87;nan
43814;BME280;29669;55.706;37.656;2022-09-09T13:36:34;100995.09;;;22.78;nan
43814;BME280;29669;55.706;37.656;2022-09-09T13:39:55;101000.81;;;23.86;nan
43814;BME280;29669;55.706;37.656;2022-09-09T13:43:21;100999.34;;;23.16;nan
43814;BME280;29669;55.706;37.656;2022-09-09T13:46:44;101010.09;;;22.90;nan
43814;BME280;29669;55.706;37.656;2022-09-09T13:50:18;101001.25;;;23.59;nan
43814;BME280;29669;55.706;37.656;2022-09-09T13:53:33;101007.69;;;24.30;nan
43814;BME280;29669;55.706;37.656;2022-09-09T13:56:54;100997.94;;;23.88;nan
43814;BME280;29669;55.706;37.656;2022-09-09T14:00:15;100996.78;;;24.20;nan
43814;BME280;29669;55.706;37.656;2022-09-09T14:03:36;100991.31;;;25.10;nan
43814;BME280;29669;55.706;37.656;2022-09-09T14:06:57;100995.06;;;25.44;nan
43814;BME280;29669;55.706;37.656;2022-09-09T14:10:18;100994.25;;;22.84;nan
43814;BME280;29669;55.706;37.656;2022-09-09T14:13:39;101004.03;;;20.76;nan
43814;BME280;29669;55.706;37.656;2022-09-09T14:17:00;100999.66;;;21.09;nan
43814;BME280;29669;55.706;37.656;2022-09-09T14:20:22;101002.22;;;20.83;nan
43814;BME280;29669;55.706;37.656;2022-09-09T14:23:43;100996.94;;;19.39;nan
43814;BME280;29669;55.706;37.656;2022-09-09T14:27:04;101003.38;;;20.60;nan
43814;BME280;29669;55.706;37.656;2022-09-09T14:30:25;100999.91;;;21.27;nan
43814;BME280;29669;55.706;37.656;2022-09-09T14:33:46;101000.16;;;19.90;nan
43814;BME280;29669;55.706;37.656;2022-09-09T14:37:07;101000.88;;;18.07;nan
43814;BME280;29669;55.706;37.656;2022-09-09T14:40:28;101008.50;;;16.74;nan
43814;BME280;29669;55.706;37.656;2022-09-09T14:43:49;101001.94;;;15.69;nan
43814;BME280;29669;55.706;37.656;2022-09-09T14:47:10;101008.63;;;15.39;nan
43814;BME280;29669;55.706;37.656;2022-09-09T14:50:31;101004.69;;;16.46;nan
43814;BME280;29669;55.706;37.656;2022-09-09T14:53:58;101011.28;;;18.15;nan
43814;BME280;29669;55.706;37.656;2022-09-09T14:57:19;101006.47;;;18.04;nan
43814;BME280;29669;55.706;37.656;2022-09-09T15:00:40;100996.09;;;18.97;nan
43814;BME280;29669;55.706;37.656;2022-09-09T15:04:04;100996.78;;;20.30;nan
43814;BME280;29669;55.706;37.656;2022-09-09T15:07:26;100994.38;;;21.09;nan
43814;BME280;29669;55.706;37.656;2022-09-09T15:10:46;101000.69;;;21.08;nan
43814;BME280;29669;55.706;37.656;2022-09-09T15:14:08;100997.88;;;19.53;nan
43814;BME280;29669;55.706;37.656;2022-09-09T15:17:31;101003.94;;;18.11;nan
43814;BME280;29669;55.706;37.656;2022-09-09T15:20:52;100999.97;;;17.26;nan
43814;BME280;29669;55.706;37.656;2022-09-09T15:24:13;100996.16;;;17.51;nan
43814;BME280;29669;55.706;37.656;2022-09-09T15:27:34;100990.06;;;18.31;nan
43814;BME280;29669;55.706;37.656;2022-09-09T15:30:55;101000.84;;;19.08;nan
43814;BME280;29669;55.706;37.656;2022-09-09T15:34:16;101006.09;;;18.65;nan
43814;BME280;29669;55.706;37.656;2022-09-09T15:37:37;101015.63;;;17.11;nan
43814;BME280;29669;55.706;37.656;2022-09-09T15:40:58;101013.06;;;15.87;nan
43814;BME280;29669;55.706;37.656;2022-09-09T15:44:19;101014.19;;;15.04;nan
43814;BME280;29669;55.706;37.656;2022-09-09T15:47:40;101019.06;;;14.41;nan
43814;BME280;29669;55.706;37.656;2022-09-09T15:51:22;101028.31;;;14.10;nan
43814;BME280;29669;55.706;37.656;2022-09-09T15:54:48;101027.09;;;13.71;nan
43814;BME280;29669;55.706;37.656;2022-09-09T15:58:09;101044.06;;;13.32;nan
43814;BME280;29669;55.706;37.656;2022-09-09T16:01:31;101041.13;;;12.99;nan
43814;BME280;29669;55.706;37.656;2022-09-09T16:04:53;101050.59;;;12.73;nan
43814;BME280;29669;55.706;37.656;2022-09-09T16:08:14;101054.25;;;12.53;nan
43814;BME280;29669;55.706;37.656;2022-09-09T16:11:37;101047.72;;;12.40;nan
43814;BME280;29669;55.706;37.656;2022-09-09T16:14:58;101053.25;;;12.27;nan
43814;BME280;29669;55.706;37.656;2022-09-09T16:18:19;101056.03;;;12.16;nan
43814;BME280;29669;55.706;37.656;2022-09-09T16:21:42;101054.56;;;12.04;nan
43814;BME280;29669;55.706;37.656;2022-09-09T16:25:03;101051.28;;;11.92;nan
43814;BME280;29669;55.706;37.656;2022-09-09T16:28:28;101049.97;;;11.79;nan
43814;BME280;29669;55.706;37.656;2022-09-09T16:31:50;101056.53;;;11.64;nan
43814;BME280;29669;55.706;37.656;2022-09-09T16:35:13;101054.47;;;11.58;nan
43814;BME280;29669;55.706;37.656;2022-09-09T16:38:36;101065.97;;;11.46;nan
43814;BME280;29669;55.706;37.656;2022-09-09T16:41:57;101058.31;;;11.34;nan
43814;BME280;29669;55.706;37.656;2022-09-09T16:45:19;101063.78;;;11.22;nan
43814;BME280;29669;55.706;37.656;2022-09-09T16:48:42;101066.38;;;11.12;nan
43814;BME280;29669;55.706;37.656;2022-09-09T16:52:03;101070.31;;;11.07;nan
43814;BME280;29669;55.706;37.656;2022-09-09T16:55:26;101081.50;;;10.98;nan
43814;BME280;29669;55.706;37.656;2022-09-09T16:58:52;101079.56;;;10.90;nan
43814;BME280;29669;55.706;37.656;2022-09-09T17:02:13;101085.03;;;10.87;nan
43814;BME280;29669;55.706;37.656;2022-09-09T17:05:39;101079.56;;;10.90;nan
43814;BME280;29669;55.706;37.656;2022-09-09T17:09:03;101086.09;;;10.85;nan
43814;BME280;29669;55.706;37.656;2022-09-09T17:12:25;101091.03;;;10.78;nan
43814;BME280;29669;55.706;37.656;2022-09-09T17:15:48;101077.03;;;10.70;nan
43814;BME280;29669;55.706;37.656;2022-09-09T17:19:10;101083.91;;;10.71;nan
43814;BME280;29669;55.706;37.656;2022-09-09T17:22:31;101086.88;;;10.66;nan
43814;BME280;29669;55.706;37.656;2022-09-09T17:25:56;101085.50;;;10.62;nan
43814;BME280;29669;55.706;37.656;2022-09-09T17:29:17;101081.66;;;10.57;nan
43814;BME280;29669;55.706;37.656;2022-09-09T17:32:38;101088.44;;;10.48;nan
43814;BME280;29669;55.706;37.656;2022-09-09T17:36:10;101092.63;;;10.39;nan
43814;BME280;29669;55.706;37.656;2022-09-09T17:39:31;101095.19;;;10.30;nan
43814;BME280;29669;55.706;37.656;2022-09-09T17:42:53;101094.56;;;10.17;nan
43814;BME280;29669;55.706;37.656;2022-09-09T17:49:37;101107.72;;;10.04;nan
43814;BME280;29669;55.706;37.656;2022-09-09T17:52:58;101104.16;;;10.05;nan
43814;BME280;29669;55.706;37.656;2022-09-09T17:56:21;101109.16;;;9.97;nan
43814;BME280;29669;55.706;37.656;2022-09-09T17:59:44;101105.91;;;9.84;nan
43814;BME280;29669;55.706;37.656;2022-09-09T18:03:10;101102.56;;;9.73;nan
43814;BME280;29669;55.706;37.656;2022-09-09T18:06:35;101105.78;;;9.65;nan
43814;BME280;29669;55.706;37.656;2022-09-09T18:09:56;101102.25;;;9.66;nan
43814;BME280;29669;55.706;37.656;2022-09-09T18:13:17;101097.19;;;9.65;nan
43814;BME280;29669;55.706;37.656;2022-09-09T18:16:39;101099.06;;;9.63;nan
43814;BME280;29669;55.706;37.656;2022-09-09T18:20:00;101096.84;;;9.58;nan
43814;BME280;29669;55.706;37.656;2022-09-09T18:23:21;101101.00;;;9.49;nan
43814;BME280;29669;55.706;37.656;2022-09-09T18:26:43;101097.50;;;9.39;nan
43814;BME280;29669;55.706;37.656;2022-09-09T18:30:04;101093.50;;;9.35;nan
43814;BME280;29669;55.706;37.656;2022-09-09T18:33:25;101097.28;;;9.31;nan
43814;BME280;29669;55.706;37.656;2022-09-09T18:36:49;101093.28;;;9.27;nan
43814;BME280;29669;55.706;37.656;2022-09-09T18:40:10;101104.50;;;9.28;nan
43814;BME280;29669;55.706;37.656;2022-09-09T18:43:31;101110.16;;;9.22;nan
43814;BME280;29669;55.706;37.656;2022-09-09T18:46:53;101114.06;;;9.16;nan
43814;BME280;29669;55.706;37.656;2022-09-09T18:50:14;101116.44;;;9.08;nan
43814;BME280;29669;55.706;37.656;2022-09-09T18:53:36;101112.91;;;8.98;nan
43814;BME280;29669;55.706;37.656;2022-09-09T18:56:57;101109.97;;;8.92;nan
43814;BME280;29669;55.706;37.656;2022-09-09T19:00:18;101117.28;;;8.87;nan
43814;BME280;29669;55.706;37.656;2022-09-09T19:03:39;101116.91;;;8.80;nan
43814;BME280;29669;55.706;37.656;2022-09-09T19:07:00;101114.94;;;8.84;nan
43814;BME280;29669;55.706;37.656;2022-09-09T19:10:21;101110.56;;;8.84;nan
43814;BME280;29669;55.706;37.656;2022-09-09T19:13:56;101115.53;;;8.87;nan
43814;BME280;29669;55.706;37.656;2022-09-09T19:17:17;101111.66;;;8.82;nan
43814;BME280;29669;55.706;37.656;2022-09-09T19:20:39;101114.00;;;8.74;nan
43814;BME280;29669;55.706;37.656;2022-09-09T19:24:15;101120.47;;;8.68;nan
43814;BME280;29669;55.706;37.656;2022-09-09T19:27:36;101122.56;;;8.63;nan
43814;BME280;29669;55.706;37.656;2022-09-09T19:31:08;101121.97;;;8.60;nan
43814;BME280;29669;55.706;37.656;2022-09-09T19:34:29;101125.03;;;8.53;nan
43814;BME280;29669;55.706;37.656;2022-09-09T19:37:51;101130.56;;;8.49;nan
43814;BME280;29669;55.706;37.656;2022-09-09T19:41:08;101129.75;;;8.48;nan
43814;BME280;29669;55.706;37.656;2022-09-09T19:44:29;101128.13;;;8.47;nan
43814;BME280;29669;55.706;37.656;2022-09-09T19:47:50;101128.56;;;8.41;nan
43814;BME280;29669;55.706;37.656;2022-09-09T19:51:14;101132.06;;;8.40;nan
43814;BME280;29669;55.706;37.656;2022-09-09T19:54:36;101133.16;;;8.38;nan
43814;BME280;29669;55.706;37.656;2022-09-09T19:57:57;101131.72;;;8.34;nan
43814;BME280;29669;55.706;37.656;2022-09-09T20:04:48;101137.31;;;8.17;nan
43814;BME280;29669;55.706;37.656;2022-09-09T20:08:09;101147.06;;;8.13;nan
43814;BME280;29669;55.706;37.656;2022-09-09T20:11:30;101143.25;;;8.06;nan
43814;BME280;29669;55.706;37.656;2022-09-09T20:14:51;101146.69;;;8.07;nan